Time;durP1;ratioP1;P1;durP2;ratioP2;P2;SDS_P1;SDS_P2;PMS_P1;PMS_P2;Temp;Humidity;BMP_temperature;BMP_pressure;BME280_temperature;BME280_humidity;BME280_pressure;Samples;Min_cycle;Max_cycle;Signal;HPM_P1;HPM_P2
2022/06/24 00:02:50;;;;;;;2.70;0.60;;;;;;;21.12;50.94;97724.78;15288436;19;20011;-59
2022/06/24 00:07:56;;;;;;;1.27;0.60;;;;;;;21.14;50.51;97739.06;15276260;19;20456;-57
2022/06/24 00:13:06;;;;;;;0.95;0.60;;;;;;;21.18;49.99;97741.06;15286677;19;20039;-61
2022/06/24 00:18:16;;;;;;;0.50;0.40;;;;;;;21.21;50.54;97746.06;15273794;19;20010;-61
2022/06/24 00:23:24;;;;;;;2.78;0.70;;;;;;;21.19;49.84;97742.72;15286767;19;20402;-60
2022/06/24 00:28:31;;;;;;;1.60;0.70;;;;;;;21.31;49.25;97750.03;15277064;19;20384;-60
2022/06/24 00:33:39;;;;;;;0.60;0.60;;;;;;;21.34;48.99;97752.28;15283840;19;20475;-59
2022/06/24 00:38:53;;;;;;;1.27;0.70;;;;;;;21.32;49.01;97747.03;15284746;19;20025;-59
2022/06/24 00:44:03;;;;;;;2.25;0.70;;;;;;;21.31;48.81;97745.38;15275556;19;20018;-60
2022/06/24 00:49:14;;;;;;;0.88;0.65;;;;;;;21.29;48.96;97743.97;15281083;19;20587;-59
2022/06/24 00:54:21;;;;;;;1.20;0.57;;;;;;;21.25;49.22;97741.72;15274141;19;20014;-59
2022/06/24 00:59:29;;;;;;;3.20;0.70;;;;;;;21.17;49.30;97742.13;15283419;19;20011;-56
2022/06/24 01:04:43;;;;;;;0.82;0.55;;;;;;;21.14;48.91;97739.88;15279650;19;20022;-58
2022/06/24 01:09:48;;;;;;;2.63;0.70;;;;;;;21.12;49.42;97746.69;15280317;19;20002;-60
2022/06/24 01:14:56;;;;;;;2.40;0.73;;;;;;;21.04;49.66;97746.03;15271555;19;20022;-57
2022/06/24 01:20:01;;;;;;;0.63;0.52;;;;;;;20.98;49.88;97729.75;15281710;19;20014;-59
2022/06/24 01:25:13;;;;;;;1.58;0.73;;;;;;;20.91;50.28;97736.19;15269753;19;20010;-54
2022/06/24 01:30:18;;;;;;;1.20;0.60;;;;;;;20.83;51.18;97744.81;15278309;19;20013;-56
2022/06/24 01:35:23;;;;;;;1.58;0.70;;;;;;;20.78;51.38;97741.97;15277876;19;20018;-56
2022/06/24 01:40:31;;;;;;;0.70;0.60;;;;;;;20.70;52.25;97736.84;15279831;19;20021;-53
2022/06/24 01:45:36;;;;;;;2.25;0.70;;;;;;;20.61;53.32;97730.94;15271989;19;20034;-52
2022/06/24 01:50:41;;;;;;;2.13;0.80;;;;;;;20.55;54.59;97724.53;15278972;19;20014;-51
2022/06/24 01:55:51;;;;;;;0.95;0.70;;;;;;;20.44;56.15;97726.25;15270437;19;20475;-53
2022/06/24 02:00:57;;;;;;;1.35;0.65;;;;;;;20.38;57.16;97709.97;15279077;19;20018;-56
2022/06/24 02:06:07;;;;;;;3.83;0.80;;;;;;;20.33;58.81;97702.50;15275845;19;20014;-57
2022/06/24 02:16:38;;;;;;;1.10;0.70;;;;;;;20.26;62.52;97696.31;15272087;19;20006;-55
2022/06/24 02:21:43;;;;;;;1.88;0.90;;;;;;;20.23;64.18;97686.69;15274227;19;20014;-56
2022/06/24 02:26:51;;;;;;;2.08;0.80;;;;;;;20.19;66.86;97685.50;15265114;19;20058;-57
2022/06/24 02:31:56;;;;;;;1.20;0.70;;;;;;;20.16;68.22;97677.81;15273075;19;20388;-56
2022/06/24 02:37:02;;;;;;;1.02;0.70;;;;;;;20.15;71.46;97673.41;15273056;19;20022;-55
2022/06/24 02:42:10;;;;;;;1.73;0.70;;;;;;;20.13;74.40;97675.53;15276963;19;20015;-57
2022/06/24 02:47:15;;;;;;;1.75;0.70;;;;;;;20.07;77.98;97671.88;15265940;19;20018;-58
2022/06/24 02:52:20;;;;;;;1.25;0.60;;;;;;;20.05;79.16;97663.06;15273021;19;20015;-58
2022/06/24 02:57:28;;;;;;;0.82;0.60;;;;;;;20.02;80.75;97661.66;15282508;19;20007;-55
2022/06/24 03:02:34;;;;;;;1.90;0.60;;;;;;;20.09;85.25;97657.94;15284738;19;20499;-56
2022/06/24 03:07:39;;;;;;;1.00;0.63;;;;;;;20.08;85.74;97654.41;15282631;19;20014;-57
2022/06/24 03:12:47;;;;;;;3.58;0.70;;;;;;;20.07;87.21;97652.72;15285620;19;20019;-55
2022/06/24 03:17:52;;;;;;;0.75;0.70;;;;;;;20.06;90.37;97652.97;15282364;19;20018;-55
2022/06/24 03:22:58;;;;;;;3.78;0.70;;;;;;;20.02;95.99;97653.47;15283442;19;20010;-55
2022/06/24 03:28:07;;;;;;;2.35;0.93;;;;;;;20.00;97.43;97650.13;15278875;19;20010;-55
2022/06/24 03:33:12;;;;;;;2.63;0.70;;;;;;;19.98;97.59;97646.00;15276417;19;20010;-55
2022/06/24 03:38:17;;;;;;;2.05;0.70;;;;;;;20.00;95.40;97644.66;15280839;19;20499;-57
2022/06/24 03:43:24;;;;;;;1.90;0.80;;;;;;;19.97;100.00;97642.41;15287224;19;20018;-56
2022/06/24 03:48:29;;;;;;;2.40;0.90;;;;;;;19.99;98.19;97640.25;15280395;19;20018;-58
2022/06/24 03:53:34;;;;;;;2.50;0.57;;;;;;;20.01;99.61;97646.31;15280594;19;20038;-58
2022/06/24 03:58:42;;;;;;;1.42;0.77;;;;;;;20.04;100.00;97641.47;15278281;19;20427;-53
2022/06/24 04:03:48;;;;;;;1.73;0.70;;;;;;;20.08;99.03;97645.34;15277003;19;20014;-60
2022/06/24 04:08:56;;;;;;;1.25;0.65;;;;;;;20.14;99.31;97650.69;15284953;19;20507;-55
2022/06/24 04:14:05;;;;;;;0.82;0.60;;;;;;;20.18;100.00;97640.09;15280453;19;20408;-59
2022/06/24 04:19:11;;;;;;;2.63;0.77;;;;;;;20.24;100.00;97638.28;15282165;19;20472;-53
2022/06/24 04:24:15;;;;;;;1.00;0.70;;;;;;;20.29;100.00;97636.47;15281163;19;20014;-58
2022/06/24 04:29:23;;;;;;;1.40;0.70;;;;;;;20.40;100.00;97632.03;15279275;19;20025;-55
2022/06/24 04:34:29;;;;;;;3.08;0.70;;;;;;;20.46;100.00;97643.91;15274918;19;20010;-55
2022/06/24 04:39:34;;;;;;;0.98;0.68;;;;;;;20.51;100.00;97654.97;15274459;19;20035;-56
2022/06/24 04:44:42;;;;;;;1.40;0.80;;;;;;;20.59;100.00;97651.81;15280722;19;20011;-58
2022/06/24 04:49:54;;;;;;;2.15;0.80;;;;;;;20.68;100.00;97657.75;15281338;19;20090;-52
2022/06/24 04:55:00;;;;;;;1.60;0.73;;;;;;;20.82;100.00;97644.59;15280745;19;20019;-54
2022/06/24 05:00:10;;;;;;;1.25;0.70;;;;;;;20.89;100.00;97642.50;15279166;19;20320;-56
2022/06/24 05:05:15;;;;;;;2.67;0.90;;;;;;;21.00;100.00;97659.97;15278438;19;20014;-53
2022/06/24 05:10:20;;;;;;;0.93;0.70;;;;;;;21.15;100.00;97655.81;15276342;19;20041;-53
2022/06/24 05:15:29;;;;;;;3.65;0.95;;;;;;;21.40;99.23;97638.94;15276922;19;20027;-57
2022/06/24 05:20:34;;;;;;;1.52;0.70;;;;;;;21.58;97.39;97656.22;15282652;19;20042;-55
2022/06/24 05:25:39;;;;;;;1.88;0.65;;;;;;;21.74;94.08;97638.91;15275901;19;20355;-58
2022/06/24 05:30:46;;;;;;;2.55;0.80;;;;;;;21.99;90.00;97626.63;15279577;19;20023;-60
2022/06/24 05:35:54;;;;;;;1.17;0.60;;;;;;;22.16;87.84;97618.31;15274599;19;20006;-54
2022/06/24 05:40:59;;;;;;;1.40;0.60;;;;;;;22.32;83.64;97611.09;15275822;19;20371;-53
2022/06/24 05:46:07;;;;;;;1.25;0.70;;;;;;;22.52;77.81;97598.72;15274413;19;20022;-52
2022/06/24 05:51:15;;;;;;;2.67;0.60;;;;;;;22.66;77.97;97610.91;15278433;19;20018;-58
2022/06/24 05:56:21;;;;;;;2.15;0.75;;;;;;;22.85;77.73;97603.13;15274707;19;20031;-58
2022/06/24 06:01:30;;;;;;;1.13;0.60;;;;;;;23.00;71.00;97607.91;15279497;19;20022;-58
2022/06/24 06:06:36;;;;;;;2.13;0.50;;;;;;;23.15;70.96;97600.88;15267475;19;20015;-57
2022/06/24 06:11:41;;;;;;;1.15;0.60;;;;;;;23.30;69.81;97597.44;15272423;19;20038;-58
2022/06/24 06:16:48;;;;;;;1.45;0.65;;;;;;;23.44;68.22;97592.31;15271445;19;20010;-58
2022/06/24 06:21:53;;;;;;;2.33;0.70;;;;;;;23.59;69.57;97586.91;15277085;19;20039;-58
2022/06/24 06:26:58;;;;;;;2.08;0.75;;;;;;;23.73;68.12;97586.41;15272429;19;20019;-56
2022/06/24 06:32:07;;;;;;;1.65;0.60;;;;;;;23.99;67.14;97587.41;15275124;19;20018;-56
2022/06/24 06:37:12;;;;;;;1.23;0.60;;;;;;;24.21;64.75;97578.94;15262798;19;20039;-54
2022/06/24 06:42:17;;;;;;;1.13;0.50;;;;;;;24.36;65.13;97580.06;15275790;19;20018;-56
2022/06/24 06:47:24;;;;;;;0.85;0.63;;;;;;;24.42;64.21;97584.47;15266486;19;20015;-56
2022/06/24 06:52:29;;;;;;;2.25;0.80;;;;;;;24.52;64.95;97587.22;15274175;19;20372;-56
2022/06/24 06:57:35;;;;;;;1.58;0.65;;;;;;;24.63;64.66;97574.31;15269966;19;20015;-56
2022/06/24 07:02:43;;;;;;;1.60;0.73;;;;;;;24.91;65.70;97580.44;15275338;19;20451;-55
2022/06/24 07:07:51;;;;;;;2.70;0.70;;;;;;;25.22;64.90;97586.75;15268063;19;20408;-55
2022/06/24 07:12:56;;;;;;;2.30;0.70;;;;;;;25.60;63.75;97577.31;15269675;19;20010;-55
2022/06/24 07:18:04;;;;;;;1.45;0.75;;;;;;;25.95;65.23;97576.38;15262966;19;20010;-55
2022/06/24 07:23:09;;;;;;;2.78;1.00;;;;;;;26.02;68.02;97576.06;15275887;19;20022;-59
2022/06/24 07:28:14;;;;;;;1.73;0.88;;;;;;;25.97;71.07;97574.16;15292202;19;20014;-84
2022/06/24 07:33:23;;;;;;;1.85;1.00;;;;;;;25.85;74.92;97563.44;15311957;19;20022;-84
2022/06/24 07:38:28;;;;;;;3.65;0.93;;;;;;;25.77;74.17;97580.56;15329170;19;20007;-85
2022/06/24 07:43:33;;;;;;;1.10;0.88;;;;;;;25.88;74.84;97577.78;15305099;19;20259;-84
2022/06/24 07:48:41;;;;;;;1.98;0.93;;;;;;;25.78;69.83;97579.47;15309095;19;20010;-85
2022/06/24 07:53:48;;;;;;;1.85;0.90;;;;;;;25.69;70.59;97578.41;15304453;19;20393;-83
2022/06/24 07:58:55;;;;;;;2.35;0.85;;;;;;;25.70;70.40;97582.78;15301823;19;20481;-84
2022/06/24 08:04:07;;;;;;;2.65;0.93;;;;;;;25.61;70.52;97592.75;15308475;19;20509;-86
2022/06/24 08:09:13;;;;;;;3.85;0.90;;;;;;;25.41;73.25;97594.47;15308515;19;20523;-83
2022/06/24 08:14:18;;;;;;;4.78;1.10;;;;;;;24.64;100.00;97610.97;15298616;19;20050;-82
2022/06/24 08:19:26;;;;;;;2.35;1.10;;;;;;;23.90;100.00;97621.97;15308100;19;20018;-85
2022/06/24 08:24:30;;;;;;;2.80;1.00;;;;;;;23.54;100.00;97619.88;15305934;19;20011;-85
2022/06/24 08:29:36;;;;;;;3.22;1.00;;;;;;;23.32;100.00;97620.84;15302007;19;20796;-85
2022/06/24 08:34:43;;;;;;;6.45;1.42;;;;;;;22.89;100.00;97637.22;15289175;19;20014;-85
2022/06/24 08:40:10;;;;;;;6.95;1.40;;;;;;;21.84;100.00;97636.31;15296624;19;20043;-82
2022/06/24 08:45:15;;;;;;;4.03;1.77;;;;;;;21.43;100.00;97665.00;15286076;19;20031;-83
2022/06/24 08:50:23;;;;;;;5.45;1.45;;;;;;;20.86;100.00;97662.19;15283720;19;20038;-82
2022/06/24 08:55:30;;;;;;;2.75;1.63;;;;;;;20.77;100.00;97680.06;15293179;19;20014;-85
2022/06/24 09:00:35;;;;;;;3.97;1.80;;;;;;;20.74;100.00;97661.41;15301864;19;20010;-82
2022/06/24 09:05:44;;;;;;;4.07;1.77;;;;;;;20.60;100.00;97660.84;15286890;19;20014;-83
2022/06/24 09:11:06;;;;;;;2.15;1.33;;;;;;;20.37;100.00;97659.06;15304080;19;20023;-83
2022/06/24 09:16:11;;;;;;;2.42;1.65;;;;;;;20.39;100.00;97645.97;15296830;19;20018;-83
2022/06/24 09:21:28;;;;;;;3.70;1.88;;;;;;;20.31;100.00;97648.00;15298104;19;20007;-82
2022/06/24 09:26:35;;;;;;;2.97;1.75;;;;;;;20.35;100.00;97653.81;15288245;19;20015;-83
2022/06/24 09:31:41;;;;;;;3.97;1.73;;;;;;;20.40;100.00;97648.44;15281186;19;20033;-51
2022/06/24 09:36:49;;;;;;;3.90;1.90;;;;;;;20.53;100.00;97654.72;15274832;19;20367;-55
2022/06/24 09:41:56;;;;;;;4.82;2.08;;;;;;;20.53;100.00;97669.19;15274187;19;20813;-51
2022/06/24 09:47:06;;;;;;;4.43;1.60;;;;;;;20.63;100.00;97653.00;15277738;19;20053;-58
2022/06/24 09:52:13;;;;;;;3.72;1.73;;;;;;;20.70;100.00;97662.97;15272123;19;20022;-53
2022/06/24 09:57:19;;;;;;;3.17;1.90;;;;;;;20.82;100.00;97679.34;15274266;19;20014;-58
2022/06/24 10:02:26;;;;;;;4.47;1.85;;;;;;;20.93;100.00;97662.03;15280424;19;20487;-51
2022/06/24 10:07:38;;;;;;;4.20;1.70;;;;;;;21.01;100.00;97667.09;15278106;19;20018;-52
2022/06/24 10:12:47;;;;;;;3.40;1.60;;;;;;;21.05;100.00;97679.19;15270561;19;20014;-54
2022/06/24 10:17:53;;;;;;;4.13;1.90;;;;;;;21.13;100.00;97693.56;15275727;19;20018;-58
2022/06/24 10:23:00;;;;;;;4.43;1.95;;;;;;;;;;15270814;19;20475;-52
2022/06/24 10:28:09;;;;;;;2.58;1.90;;;;;;;21.24;100.00;97679.78;15276480;19;20670;-53
2022/06/24 10:33:14;;;;;;;5.38;2.08;;;;;;;21.39;100.00;97686.59;15270397;19;20031;-55
2022/06/24 10:38:23;;;;;;;5.10;1.85;;;;;;;21.43;100.00;97667.75;15275151;19;20022;-51
2022/06/24 10:43:42;;;;;;;2.83;1.70;;;;;;;21.47;100.00;97660.69;15269241;19;20014;-56
2022/06/24 10:49:08;;;;;;;3.67;1.73;;;;;;;21.59;100.00;97664.19;15273159;19;20010;-51
2022/06/24 10:54:24;;;;;;;2.75;1.80;;;;;;;21.77;100.00;97667.72;15269038;19;20010;-55
2022/06/24 10:59:36;;;;;;;4.63;2.10;;;;;;;21.90;100.00;97663.81;15276530;19;20011;-52
2022/06/24 11:04:44;;;;;;;5.32;2.08;;;;;;;22.04;100.00;97659.59;15268638;19;20031;-57
2022/06/24 11:09:51;;;;;;;3.05;1.90;;;;;;;22.22;100.00;97652.13;15279233;19;20018;-55
2022/06/24 11:14:56;;;;;;;6.13;2.33;;;;;;;22.65;100.00;97647.69;15278124;19;20057;-55
2022/06/24 11:20:02;;;;;;;4.70;2.00;;;;;;;23.02;100.00;97644.19;15294540;19;20018;-55
2022/06/24 11:25:11;;;;;;;2.97;1.58;;;;;;;23.22;100.00;97643.56;15285115;19;20042;-55
2022/06/24 11:30:16;;;;;;;2.97;1.40;;;;;;;23.33;100.00;97636.22;15292366;19;20018;-52
2022/06/24 11:35:22;;;;;;;3.67;1.40;;;;;;;23.66;100.00;97639.75;15276938;19;20099;-52
2022/06/24 11:40:32;;;;;;;2.63;1.50;;;;;;;23.82;100.00;97620.56;15293449;19;20018;-51
2022/06/24 11:45:39;;;;;;;2.90;1.50;;;;;;;24.09;100.00;97612.19;15285368;19;20018;-52
2022/06/24 11:50:45;;;;;;;3.78;1.80;;;;;;;24.26;100.00;97600.13;15291301;19;20357;-56
2022/06/24 11:55:55;;;;;;;3.00;1.77;;;;;;;24.63;100.00;97604.63;15282742;19;20025;-51
2022/06/24 12:01:00;;;;;;;3.47;1.50;;;;;;;24.65;100.00;97585.06;15291244;19;20014;-54
2022/06/24 12:06:05;;;;;;;3.13;1.40;;;;;;;24.70;100.00;97585.09;15282102;19;20030;-53
2022/06/24 12:11:19;;;;;;;2.67;1.50;;;;;;;24.91;100.00;97572.97;15286450;19;20496;-56
2022/06/24 12:16:24;;;;;;;2.75;1.27;;;;;;;25.21;100.00;97559.44;15283239;19;20133;-54
2022/06/24 12:21:33;;;;;;;2.78;1.23;;;;;;;25.34;100.00;97544.28;15281122;19;20039;-52
2022/06/24 12:26:46;;;;;;;1.95;1.10;;;;;;;25.57;100.00;97542.84;15280701;19;20047;-55
2022/06/24 12:31:53;;;;;;;1.80;1.10;;;;;;;25.81;100.00;97531.97;15275277;19;20022;-51
2022/06/24 12:36:59;;;;;;;1.83;1.00;;;;;;;26.08;100.00;97535.47;15277909;19;20025;-57
2022/06/24 12:42:09;;;;;;;2.55;1.08;;;;;;;26.38;100.00;97528.13;15278351;19;20372;-54
2022/06/24 12:52:39;;;;;;;1.65;1.10;;;;;;;27.19;100.00;97519.44;15282403;19;20010;-54
2022/06/24 12:57:48;;;;;;;3.17;1.38;;;;;;;27.53;100.00;97519.34;15279417;19;20015;-56
2022/06/24 13:02:56;;;;;;;2.60;1.27;;;;;;;27.49;100.00;97523.00;15277237;19;20491;-54
2022/06/24 13:08:01;;;;;;;1.73;1.20;;;;;;;27.81;100.00;97513.25;15279856;19;20006;-52
2022/06/24 13:13:09;;;;;;;3.40;1.40;;;;;;;27.94;100.00;97501.41;15277719;19;20022;-55
2022/06/24 13:18:14;;;;;;;1.90;1.20;;;;;;;27.57;100.00;97508.56;15280383;19;20018;-56
2022/06/24 13:23:19;;;;;;;4.63;1.10;;;;;;;27.30;100.00;97503.56;15284604;19;20360;-56
2022/06/24 13:28:28;;;;;;;1.45;0.93;;;;;;;27.02;100.00;97498.59;15278880;19;20831;-85
2022/06/24 13:33:33;;;;;;;1.92;1.10;;;;;;;27.22;100.00;97492.03;15286267;19;20014;-86
2022/06/24 13:38:38;;;;;;;4.72;1.08;;;;;;;27.82;100.00;97498.25;15322052;19;20041;-83
2022/06/24 13:43:46;;;;;;;2.65;1.00;;;;;;;28.19;100.00;97477.28;15297297;19;20019;-85
2022/06/24 13:48:51;;;;;;;2.55;1.13;;;;;;;28.62;100.00;97467.19;15290129;19;20022;-85
2022/06/24 13:53:57;;;;;;;4.57;1.30;;;;;;;28.65;100.00;97469.34;15273567;19;20022;-86
2022/06/24 13:59:05;;;;;;;3.30;1.08;;;;;;;28.50;100.00;97449.09;15276000;19;20515;-86
2022/06/24 14:04:10;;;;;;;2.13;1.02;;;;;;;28.68;100.00;97452.13;15279622;19;20014;-85
2022/06/24 14:09:15;;;;;;;2.42;1.10;;;;;;;29.13;100.00;97440.53;15277727;19;20017;-85
2022/06/24 14:14:24;;;;;;;4.05;0.95;;;;;;;29.58;99.96;97424.06;15278671;19;20074;-86
2022/06/24 14:19:29;;;;;;;4.40;0.85;;;;;;;30.07;97.30;97424.38;15284609;19;20010;-82
2022/06/24 14:24:35;;;;;;;1.77;1.00;;;;;;;30.26;82.14;97421.44;15280122;19;20022;-85
2022/06/24 14:29:42;;;;;;;3.15;1.10;;;;;;;29.74;93.62;97421.78;15285742;19;20042;-85
2022/06/24 14:34:47;;;;;;;2.55;1.10;;;;;;;30.11;87.86;97408.75;15275117;19;20039;-84
2022/06/24 14:45:33;;;;;;;1.73;0.80;;;;;;;29.07;86.17;97395.44;15272886;19;20022;-85
2022/06/24 14:50:39;;;;;;;2.08;0.88;;;;;;;29.12;88.29;97383.41;15289676;19;20039;-83
2022/06/24 14:55:44;;;;;;;1.85;0.90;;;;;;;28.85;87.28;97388.66;15281086;19;20035;-85
2022/06/24 15:00:52;;;;;;;1.80;0.90;;;;;;;28.79;88.00;97375.19;15283941;19;20634;-85
2022/06/24 15:05:57;;;;;;;1.40;0.90;;;;;;;28.53;90.83;97373.66;15299065;19;20025;-82
2022/06/24 15:11:02;;;;;;;4.03;1.17;;;;;;;28.66;92.63;97360.16;15293037;19;20022;-84
2022/06/24 15:16:10;;;;;;;4.68;1.00;;;;;;;29.39;86.16;97368.72;15292757;19;20038;-84
2022/06/24 15:21:16;;;;;;;1.55;0.90;;;;;;;29.47;83.03;97379.06;15300900;19;20035;-84
2022/06/24 15:26:21;;;;;;;2.13;0.98;;;;;;;29.32;80.50;97379.41;15318199;19;20043;-83
2022/06/24 15:31:29;;;;;;;1.67;0.82;;;;;;;29.45;86.42;97373.03;15303943;19;20022;-56
2022/06/24 15:36:34;;;;;;;2.08;0.90;;;;;;;28.98;74.88;97383.41;15287441;19;20058;-58
2022/06/24 15:41:39;;;;;;;2.08;1.00;;;;;;;29.00;82.04;97386.69;15289143;19;20015;-53
2022/06/24 15:46:47;;;;;;;2.30;1.00;;;;;;;28.77;82.73;97394.88;15284372;19;20085;-57
2022/06/24 15:51:52;;;;;;;2.35;1.00;;;;;;;28.31;80.65;97390.97;15277287;19;20098;-58
2022/06/24 15:56:58;;;;;;;3.28;0.93;;;;;;;28.18;84.73;97405.59;15282869;19;20011;-56
2022/06/24 16:02:06;;;;;;;2.85;0.95;;;;;;;28.04;91.83;97405.50;15290758;19;20023;-55
2022/06/24 16:07:14;;;;;;;2.90;1.20;;;;;;;27.48;100.00;97430.91;15285400;19;20078;-54
2022/06/24 16:12:32;;;;;;;5.93;1.60;;;;;;;26.54;100.00;97465.28;15285709;19;20027;-54
2022/06/24 16:17:40;;;;;;;6.97;2.30;;;;;;;23.19;100.00;97472.88;15283460;19;20499;-53
2022/06/24 16:22:46;;;;;;;8.50;2.05;;;;;;;22.33;100.00;97497.50;15279068;19;20074;-56
2022/06/24 16:33:12;;;;;;;5.53;1.58;;;;;;;22.37;100.00;97481.34;15276458;19;20017;-51
2022/06/24 16:38:18;;;;;;;4.72;1.70;;;;;;;22.13;100.00;97488.00;15279220;19;20568;-54
2022/06/24 16:43:28;;;;;;;2.08;1.20;;;;;;;21.86;100.00;97466.88;15283019;19;20028;-54
2022/06/24 16:48:37;;;;;;;3.58;1.25;;;;;;;21.82;100.00;97476.69;15281384;19;20010;-54
2022/06/24 16:53:46;;;;;;;2.97;1.48;;;;;;;22.02;100.00;97475.28;15282284;19;20018;-54
2022/06/24 16:58:51;;;;;;;3.70;1.40;;;;;;;22.44;100.00;97480.06;15271739;19;20040;-56
2022/06/24 17:03:59;;;;;;;3.13;1.00;;;;;;;22.46;100.00;97469.66;15282518;19;20022;-56
2022/06/24 17:09:05;;;;;;;1.45;0.90;;;;;;;22.17;100.00;97472.66;15279821;19;20460;-59
2022/06/24 17:14:10;;;;;;;1.90;0.70;;;;;;;22.09;100.00;97462.16;15281355;19;20010;-59
2022/06/24 17:19:18;;;;;;;1.50;0.70;;;;;;;22.23;100.00;97476.28;15281797;19;20027;-61
2022/06/24 17:24:23;;;;;;;2.08;0.77;;;;;;;22.24;100.00;97461.47;15281725;19;20010;-59
2022/06/24 17:29:27;;;;;;;1.05;0.50;;;;;;;22.20;100.00;97456.78;15278242;19;20031;-58
2022/06/24 17:34:35;;;;;;;0.75;0.40;;;;;;;22.24;100.00;97471.63;15280837;19;20471;-57
2022/06/24 17:39:40;;;;;;;1.17;0.60;;;;;;;22.11;100.00;97501.16;15281895;19;20396;-57
2022/06/24 17:44:46;;;;;;;1.85;0.70;;;;;;;22.21;100.00;97470.25;15283310;19;20459;-59
2022/06/24 17:49:56;;;;;;;0.75;0.60;;;;;;;22.41;100.00;97468.78;15282045;19;20010;-59
2022/06/24 17:55:02;;;;;;;1.30;0.60;;;;;;;22.57;100.00;97472.47;15272287;19;20034;-59
2022/06/24 18:00:09;;;;;;;1.23;0.68;;;;;;;22.69;100.00;97472.31;15280935;19;20033;-56
2022/06/24 18:05:23;;;;;;;1.27;0.60;;;;;;;22.76;100.00;97484.69;15275715;19;20471;-57
2022/06/24 18:10:29;;;;;;;0.60;0.50;;;;;;;22.81;100.00;97485.84;15280523;19;20014;-58
2022/06/24 18:15:34;;;;;;;2.15;0.80;;;;;;;22.85;100.00;97492.47;15277484;19;20026;-56
2022/06/24 18:20:41;;;;;;;0.77;0.60;;;;;;;23.13;100.00;97512.41;15281114;19;20025;-58
2022/06/24 18:25:47;;;;;;;1.73;0.80;;;;;;;23.31;100.00;97501.00;15273299;19;20006;-57
2022/06/24 18:30:52;;;;;;;4.13;0.98;;;;;;;23.26;100.00;97509.22;15280083;19;20022;-53
2022/06/24 18:36:01;;;;;;;1.63;0.68;;;;;;;23.00;100.00;97521.94;15275687;19;20014;-54
2022/06/24 18:41:08;;;;;;;1.45;0.70;;;;;;;22.81;100.00;97535.25;15283143;19;20022;-55
2022/06/24 18:46:14;;;;;;;1.70;0.50;;;;;;;22.80;100.00;97531.69;15278184;19;20019;-56
2022/06/24 18:51:24;;;;;;;1.92;0.80;;;;;;;22.63;100.00;97543.63;15280435;19;20496;-58
2022/06/24 18:56:29;;;;;;;2.40;0.90;;;;;;;22.52;100.00;97549.31;15279027;19;20082;-57
2022/06/24 19:01:34;;;;;;;1.85;0.77;;;;;;;22.30;100.00;97537.28;15279931;19;20018;-60
2022/06/24 19:06:42;;;;;;;2.22;0.95;;;;;;;22.20;100.00;97550.88;15259118;19;20015;-56
2022/06/24 19:11:47;;;;;;;2.83;1.20;;;;;;;22.01;100.00;97555.91;15271956;19;21182;-56
2022/06/24 19:16:52;;;;;;;1.88;1.02;;;;;;;21.78;100.00;97566.06;15262805;19;20010;-57
2022/06/24 19:22:00;;;;;;;3.30;1.17;;;;;;;21.73;100.00;97565.16;15273859;19;20085;-56
2022/06/24 19:27:06;;;;;;;2.80;1.10;;;;;;;21.59;100.00;97557.31;15246697;19;20031;-59
2022/06/24 19:32:13;;;;;;;2.67;1.10;;;;;;;21.44;100.00;97579.84;15272277;19;20023;-60
2022/06/24 19:37:21;;;;;;;1.92;1.00;;;;;;;21.37;100.00;97590.13;15279837;19;20014;-61
2022/06/24 19:42:26;;;;;;;1.75;0.90;;;;;;;21.28;100.00;97592.50;15289107;19;20014;-56
2022/06/24 19:47:32;;;;;;;2.42;1.30;;;;;;;20.91;100.00;97599.28;15282705;19;20704;-60
2022/06/24 19:52:41;;;;;;;15.15;11.45;;;;;;;20.82;100.00;97587.09;15285403;19;20017;-56
2022/06/24 19:57:46;;;;;;;9.43;6.30;;;;;;;20.70;100.00;97595.34;15281374;19;20022;-60
2022/06/24 20:08:30;;;;;;;8.10;5.57;;;;;;;20.53;100.00;97603.53;15279846;19;20518;-60
2022/06/24 20:13:35;;;;;;;4.93;2.40;;;;;;;20.40;100.00;97609.34;15280614;19;20823;-60
2022/06/24 20:18:40;;;;;;;2.47;1.70;;;;;;;20.37;100.00;97605.16;15279119;19;20018;-60
2022/06/24 20:23:47;;;;;;;2.13;1.60;;;;;;;20.32;100.00;97605.91;15279957;19;20022;-60
2022/06/24 20:28:53;;;;;;;4.38;1.70;;;;;;;20.26;100.00;97614.25;15278214;19;20014;-58
2022/06/24 20:33:57;;;;;;;3.50;1.45;;;;;;;20.12;100.00;97613.72;15280729;19;20014;-60
2022/06/24 20:39:05;;;;;;;3.60;1.20;;;;;;;20.04;100.00;97627.78;15275265;19;20011;-60
2022/06/24 20:44:11;;;;;;;3.80;2.03;;;;;;;19.92;100.00;97631.38;15277279;19;20031;-59
2022/06/24 20:49:16;;;;;;;3.20;2.10;;;;;;;19.87;100.00;97631.25;15283099;19;20010;-58
2022/06/24 20:54:24;;;;;;;4.38;1.75;;;;;;;19.86;100.00;97640.53;15277008;19;20014;-59
2022/06/24 20:59:29;;;;;;;2.47;1.30;;;;;;;19.82;100.00;97653.81;15284012;19;20014;-59
2022/06/24 21:04:34;;;;;;;3.83;1.30;;;;;;;19.78;100.00;97651.81;15282073;19;20022;-59
2022/06/24 21:09:42;;;;;;;2.25;1.25;;;;;;;19.77;100.00;97672.81;15281494;19;20376;-59
2022/06/24 21:14:47;;;;;;;3.35;1.40;;;;;;;19.71;100.00;97682.81;15274076;19;20006;-60
2022/06/24 21:19:51;;;;;;;3.88;1.30;;;;;;;19.58;100.00;97691.25;15280999;19;20619;-59
2022/06/24 21:24:59;;;;;;;4.28;1.40;;;;;;;19.40;100.00;97690.31;15282253;19;20014;-60
2022/06/24 21:30:04;;;;;;;4.85;1.58;;;;;;;19.32;100.00;97703.47;15273303;19;20371;-61
2022/06/24 21:35:10;;;;;;;4.82;1.33;;;;;;;19.26;100.00;97710.72;15280089;19;20019;-61
2022/06/24 21:40:18;;;;;;;2.42;1.20;;;;;;;19.23;100.00;97716.63;15277732;19;20014;-58
2022/06/24 21:45:32;;;;;;;1.30;1.00;;;;;;;19.21;100.00;97730.53;15276259;19;20015;-61
2022/06/24 21:50:38;;;;;;;3.72;1.10;;;;;;;19.17;100.00;97734.78;15271321;19;20017;-60
2022/06/24 21:55:45;;;;;;;4.38;1.15;;;;;;;18.94;100.00;97741.03;15275538;19;20022;-60
2022/06/24 22:00:50;;;;;;;3.30;1.10;;;;;;;18.86;100.00;97741.34;15272286;19;20463;-60
2022/06/24 22:05:59;;;;;;;2.75;1.10;;;;;;;18.82;100.00;97748.31;15278125;19;20038;-61
2022/06/24 22:11:06;;;;;;;2.97;1.20;;;;;;;18.79;100.00;97763.25;15277780;19;20010;-62
2022/06/24 22:16:13;;;;;;;4.68;1.38;;;;;;;18.64;100.00;97741.81;15277657;19;20011;-60
2022/06/24 22:21:18;;;;;;;5.43;1.42;;;;;;;18.59;100.00;97745.25;15270101;19;20023;-61
2022/06/24 22:26:26;;;;;;;3.15;1.30;;;;;;;18.57;100.00;97741.09;15276411;19;20022;-61
2022/06/24 22:31:31;;;;;;;3.10;1.20;;;;;;;18.52;100.00;97740.97;15268708;19;20010;-62
2022/06/24 22:36:37;;;;;;;5.50;1.60;;;;;;;18.36;100.00;97728.75;15275629;19;20027;-60
2022/06/24 22:41:44;;;;;;;4.72;1.60;;;;;;;18.22;100.00;97725.38;15275982;19;20018;-62
2022/06/24 22:46:49;;;;;;;5.25;1.55;;;;;;;18.07;100.00;97734.75;15274714;19;20502;-61
2022/06/24 22:51:54;;;;;;;4.43;1.70;;;;;;;18.05;100.00;97744.22;15270227;19;20467;-62
2022/06/24 22:57:02;;;;;;;5.65;1.60;;;;;;;18.05;100.00;97745.03;15273289;19;20014;-61
2022/06/24 23:07:59;;;;;;;4.53;1.60;;;;;;;18.04;100.00;97772.53;15274239;19;19975;-61
2022/06/24 23:13:09;;;;;;;4.47;1.50;;;;;;;18.03;100.00;97771.72;15290352;19;20019;-59
2022/06/24 23:18:14;;;;;;;5.28;2.28;;;;;;;18.00;100.00;97770.25;15285225;19;20014;-58
2022/06/24 23:23:23;;;;;;;4.40;1.20;;;;;;;17.97;100.00;97775.31;15284770;19;20095;-61
2022/06/24 23:28:31;;;;;;;4.03;1.50;;;;;;;17.95;100.00;97783.69;15284657;19;20409;-59
2022/06/24 23:33:36;;;;;;;3.85;1.23;;;;;;;17.97;100.00;97792.53;15286292;19;20018;-61
2022/06/24 23:38:41;;;;;;;5.57;1.42;;;;;;;17.97;100.00;97797.13;15278301;19;20023;-62
2022/06/24 23:43:49;;;;;;;6.32;1.50;;;;;;;17.98;100.00;97793.34;15289635;19;20550;-62
2022/06/24 23:54:11;;;;;;;5.07;1.40;;;;;;;17.73;100.00;97788.72;15289297;19;20340;-62
2022/06/24 23:59:19;;;;;;;5.70;1.10;;;;;;;17.54;100.00;97776.94;15276266;19;20022;-61
